sensor_id;sensor_type;location;lat;lon;timestamp;P1;durP1;ratioP1;P2;durP2;ratioP2
17145;SDS011;8688;54.444;18.444;2023-05-29T00:00:59;10.02;;;3.38;;
17145;SDS011;8688;54.444;18.444;2023-05-29T00:03:27;9.82;;;3.50;;
17145;SDS011;8688;54.444;18.444;2023-05-29T00:06:01;8.93;;;3.20;;
17145;SDS011;8688;54.444;18.444;2023-05-29T00:08:29;8.63;;;3.40;;
17145;SDS011;8688;54.444;18.444;2023-05-29T00:10:56;12.23;;;3.50;;
17145;SDS011;8688;54.444;18.444;2023-05-29T00:13:23;8.02;;;3.63;;
17145;SDS011;8688;54.444;18.444;2023-05-29T00:15:51;7.90;;;3.65;;
17145;SDS011;8688;54.444;18.444;2023-05-29T00:18:18;8.02;;;3.33;;
17145;SDS011;8688;54.444;18.444;2023-05-29T00:20:46;14.13;;;3.72;;
17145;SDS011;8688;54.444;18.444;2023-05-29T00:23:15;7.35;;;3.20;;
17145;SDS011;8688;54.444;18.444;2023-05-29T00:25:42;10.52;;;3.65;;
17145;SDS011;8688;54.444;18.444;2023-05-29T00:28:10;8.43;;;3.67;;
17145;SDS011;8688;54.444;18.444;2023-05-29T00:30:38;12.95;;;3.53;;
17145;SDS011;8688;54.444;18.444;2023-05-29T00:33:05;7.55;;;3.58;;
17145;SDS011;8688;54.444;18.444;2023-05-29T00:35:33;13.13;;;3.67;;
17145;SDS011;8688;54.444;18.444;2023-05-29T00:38:01;13.32;;;3.75;;
17145;SDS011;8688;54.444;18.444;2023-05-29T00:40:30;7.55;;;3.50;;
17145;SDS011;8688;54.444;18.444;2023-05-29T00:42:57;9.23;;;3.85;;
17145;SDS011;8688;54.444;18.444;2023-05-29T00:45:24;10.00;;;3.83;;
17145;SDS011;8688;54.444;18.444;2023-05-29T00:47:52;9.30;;;4.07;;
17145;SDS011;8688;54.444;18.444;2023-05-29T00:50:20;9.13;;;3.95;;
17145;SDS011;8688;54.444;18.444;2023-05-29T00:52:50;11.45;;;3.50;;
17145;SDS011;8688;54.444;18.444;2023-05-29T00:55:18;7.88;;;3.30;;
17145;SDS011;8688;54.444;18.444;2023-05-29T00:57:47;8.65;;;3.83;;
17145;SDS011;8688;54.444;18.444;2023-05-29T01:00:15;9.95;;;3.83;;
17145;SDS011;8688;54.444;18.444;2023-05-29T01:02:44;9.38;;;3.40;;
17145;SDS011;8688;54.444;18.444;2023-05-29T01:05:12;8.18;;;3.45;;
17145;SDS011;8688;54.444;18.444;2023-05-29T01:07:40;12.30;;;3.53;;
17145;SDS011;8688;54.444;18.444;2023-05-29T01:10:08;12.40;;;4.30;;
17145;SDS011;8688;54.444;18.444;2023-05-29T01:12:38;10.10;;;3.55;;
17145;SDS011;8688;54.444;18.444;2023-05-29T01:15:18;13.18;;;4.30;;
17145;SDS011;8688;54.444;18.444;2023-05-29T01:17:58;10.45;;;4.30;;
17145;SDS011;8688;54.444;18.444;2023-05-29T01:20:56;7.85;;;4.10;;
17145;SDS011;8688;54.444;18.444;2023-05-29T01:26:37;10.50;;;3.78;;
17145;SDS011;8688;54.444;18.444;2023-05-29T01:29:14;8.00;;;3.10;;
17145;SDS011;8688;54.444;18.444;2023-05-29T01:31:45;8.38;;;4.03;;
17145;SDS011;8688;54.444;18.444;2023-05-29T01:34:14;11.40;;;3.72;;
17145;SDS011;8688;54.444;18.444;2023-05-29T01:36:41;11.73;;;3.90;;
17145;SDS011;8688;54.444;18.444;2023-05-29T01:39:09;8.60;;;4.03;;
17145;SDS011;8688;54.444;18.444;2023-05-29T01:41:38;13.00;;;4.22;;
17145;SDS011;8688;54.444;18.444;2023-05-29T01:44:07;13.57;;;4.15;;
17145;SDS011;8688;54.444;18.444;2023-05-29T01:46:35;11.73;;;3.58;;
17145;SDS011;8688;54.444;18.444;2023-05-29T01:49:04;11.48;;;3.65;;
17145;SDS011;8688;54.444;18.444;2023-05-29T01:51:32;9.43;;;3.90;;
17145;SDS011;8688;54.444;18.444;2023-05-29T01:54:00;6.93;;;3.45;;
17145;SDS011;8688;54.444;18.444;2023-05-29T01:56:28;8.88;;;3.70;;
17145;SDS011;8688;54.444;18.444;2023-05-29T01:58:58;7.72;;;3.40;;
17145;SDS011;8688;54.444;18.444;2023-05-29T02:01:29;11.55;;;3.72;;
17145;SDS011;8688;54.444;18.444;2023-05-29T02:03:57;9.15;;;3.83;;
17145;SDS011;8688;54.444;18.444;2023-05-29T02:06:24;12.00;;;4.00;;
17145;SDS011;8688;54.444;18.444;2023-05-29T02:08:52;10.93;;;3.95;;
17145;SDS011;8688;54.444;18.444;2023-05-29T02:11:19;9.10;;;3.90;;
17145;SDS011;8688;54.444;18.444;2023-05-29T02:13:47;9.38;;;3.65;;
17145;SDS011;8688;54.444;18.444;2023-05-29T02:16:16;10.60;;;4.55;;
17145;SDS011;8688;54.444;18.444;2023-05-29T02:18:45;12.32;;;4.28;;
17145;SDS011;8688;54.444;18.444;2023-05-29T02:21:13;8.05;;;4.10;;
17145;SDS011;8688;54.444;18.444;2023-05-29T02:23:40;7.28;;;3.60;;
17145;SDS011;8688;54.444;18.444;2023-05-29T02:26:07;10.57;;;3.90;;
17145;SDS011;8688;54.444;18.444;2023-05-29T02:28:35;9.15;;;4.00;;
17145;SDS011;8688;54.444;18.444;2023-05-29T02:31:03;10.20;;;3.70;;
17145;SDS011;8688;54.444;18.444;2023-05-29T02:33:32;10.40;;;3.65;;
17145;SDS011;8688;54.444;18.444;2023-05-29T02:35:59;10.80;;;4.10;;
17145;SDS011;8688;54.444;18.444;2023-05-29T02:38:27;10.23;;;4.53;;
17145;SDS011;8688;54.444;18.444;2023-05-29T02:40:54;7.47;;;3.85;;
17145;SDS011;8688;54.444;18.444;2023-05-29T02:43:22;12.68;;;4.53;;
17145;SDS011;8688;54.444;18.444;2023-05-29T02:45:50;9.80;;;3.88;;
17145;SDS011;8688;54.444;18.444;2023-05-29T02:48:17;10.10;;;3.97;;
17145;SDS011;8688;54.444;18.444;2023-05-29T02:50:46;9.20;;;4.38;;
17145;SDS011;8688;54.444;18.444;2023-05-29T02:53:14;9.77;;;3.95;;
17145;SDS011;8688;54.444;18.444;2023-05-29T02:55:41;13.43;;;4.47;;
17145;SDS011;8688;54.444;18.444;2023-05-29T02:58:09;8.32;;;4.10;;
17145;SDS011;8688;54.444;18.444;2023-05-29T03:00:37;7.38;;;4.18;;
17145;SDS011;8688;54.444;18.444;2023-05-29T03:03:05;9.57;;;4.05;;
17145;SDS011;8688;54.444;18.444;2023-05-29T03:05:32;14.45;;;4.80;;
17145;SDS011;8688;54.444;18.444;2023-05-29T03:08:01;9.05;;;4.25;;
17145;SDS011;8688;54.444;18.444;2023-05-29T03:10:29;8.23;;;4.47;;
17145;SDS011;8688;54.444;18.444;2023-05-29T03:12:56;11.13;;;4.28;;
17145;SDS011;8688;54.444;18.444;2023-05-29T03:15:23;9.50;;;4.30;;
17145;SDS011;8688;54.444;18.444;2023-05-29T03:17:51;16.45;;;5.43;;
17145;SDS011;8688;54.444;18.444;2023-05-29T03:20:18;8.68;;;4.45;;
17145;SDS011;8688;54.444;18.444;2023-05-29T03:22:46;10.45;;;4.60;;
17145;SDS011;8688;54.444;18.444;2023-05-29T03:25:15;11.40;;;4.47;;
17145;SDS011;8688;54.444;18.444;2023-05-29T03:27:43;8.05;;;4.20;;
17145;SDS011;8688;54.444;18.444;2023-05-29T03:30:10;13.27;;;4.88;;
17145;SDS011;8688;54.444;18.444;2023-05-29T03:32:38;11.73;;;5.22;;
17145;SDS011;8688;54.444;18.444;2023-05-29T03:35:06;13.48;;;5.00;;
17145;SDS011;8688;54.444;18.444;2023-05-29T03:37:34;13.00;;;4.60;;
17145;SDS011;8688;54.444;18.444;2023-05-29T03:40:01;14.68;;;4.80;;
17145;SDS011;8688;54.444;18.444;2023-05-29T03:42:32;9.82;;;4.65;;
17145;SDS011;8688;54.444;18.444;2023-05-29T03:45:00;11.18;;;4.35;;
17145;SDS011;8688;54.444;18.444;2023-05-29T03:47:27;9.90;;;4.50;;
17145;SDS011;8688;54.444;18.444;2023-05-29T03:50:13;11.30;;;4.53;;
17145;SDS011;8688;54.444;18.444;2023-05-29T03:52:41;11.02;;;4.25;;
17145;SDS011;8688;54.444;18.444;2023-05-29T03:55:09;11.27;;;4.53;;
17145;SDS011;8688;54.444;18.444;2023-05-29T03:57:41;14.45;;;4.85;;
17145;SDS011;8688;54.444;18.444;2023-05-29T04:00:09;11.95;;;4.25;;
17145;SDS011;8688;54.444;18.444;2023-05-29T04:02:37;14.73;;;4.20;;
17145;SDS011;8688;54.444;18.444;2023-05-29T04:05:05;11.32;;;3.90;;
17145;SDS011;8688;54.444;18.444;2023-05-29T04:07:34;10.65;;;4.10;;
17145;SDS011;8688;54.444;18.444;2023-05-29T04:10:04;10.75;;;4.30;;
17145;SDS011;8688;54.444;18.444;2023-05-29T04:12:32;9.82;;;3.70;;
17145;SDS011;8688;54.444;18.444;2023-05-29T04:15:02;10.00;;;3.72;;
17145;SDS011;8688;54.444;18.444;2023-05-29T04:17:30;11.10;;;4.13;;
17145;SDS011;8688;54.444;18.444;2023-05-29T04:19:57;11.70;;;3.72;;
17145;SDS011;8688;54.444;18.444;2023-05-29T04:22:31;11.10;;;3.95;;
17145;SDS011;8688;54.444;18.444;2023-05-29T04:24:58;10.63;;;3.35;;
17145;SDS011;8688;54.444;18.444;2023-05-29T04:27:26;8.02;;;3.15;;
17145;SDS011;8688;54.444;18.444;2023-05-29T04:29:53;8.35;;;3.13;;
17145;SDS011;8688;54.444;18.444;2023-05-29T04:32:23;10.55;;;3.30;;
17145;SDS011;8688;54.444;18.444;2023-05-29T04:34:51;13.45;;;3.72;;
17145;SDS011;8688;54.444;18.444;2023-05-29T04:37:19;10.85;;;3.53;;
17145;SDS011;8688;54.444;18.444;2023-05-29T04:39:55;12.63;;;3.42;;
17145;SDS011;8688;54.444;18.444;2023-05-29T04:42:22;10.38;;;2.80;;
17145;SDS011;8688;54.444;18.444;2023-05-29T04:44:51;11.27;;;3.67;;
17145;SDS011;8688;54.444;18.444;2023-05-29T04:47:19;11.20;;;2.80;;
17145;SDS011;8688;54.444;18.444;2023-05-29T04:49:49;12.10;;;3.10;;
17145;SDS011;8688;54.444;18.444;2023-05-29T04:52:16;10.25;;;2.53;;
17145;SDS011;8688;54.444;18.444;2023-05-29T04:54:46;8.82;;;2.40;;
17145;SDS011;8688;54.444;18.444;2023-05-29T04:57:13;7.88;;;2.33;;
17145;SDS011;8688;54.444;18.444;2023-05-29T04:59:41;7.57;;;2.47;;
17145;SDS011;8688;54.444;18.444;2023-05-29T05:02:08;11.45;;;2.50;;
17145;SDS011;8688;54.444;18.444;2023-05-29T05:04:35;10.40;;;3.17;;
17145;SDS011;8688;54.444;18.444;2023-05-29T05:07:05;10.27;;;2.53;;
17145;SDS011;8688;54.444;18.444;2023-05-29T05:09:32;10.00;;;2.60;;
17145;SDS011;8688;54.444;18.444;2023-05-29T05:12:00;9.25;;;2.40;;
17145;SDS011;8688;54.444;18.444;2023-05-29T05:14:27;8.93;;;2.22;;
17145;SDS011;8688;54.444;18.444;2023-05-29T05:16:55;7.28;;;1.95;;
17145;SDS011;8688;54.444;18.444;2023-05-29T05:19:22;7.22;;;2.10;;
17145;SDS011;8688;54.444;18.444;2023-05-29T05:21:49;10.00;;;2.30;;
17145;SDS011;8688;54.444;18.444;2023-05-29T05:24:18;8.90;;;2.60;;
17145;SDS011;8688;54.444;18.444;2023-05-29T05:26:46;7.40;;;2.25;;
17145;SDS011;8688;54.444;18.444;2023-05-29T05:29:13;11.25;;;2.50;;
17145;SDS011;8688;54.444;18.444;2023-05-29T05:31:41;8.73;;;2.03;;
17145;SDS011;8688;54.444;18.444;2023-05-29T05:34:08;6.15;;;2.10;;
17145;SDS011;8688;54.444;18.444;2023-05-29T05:36:36;7.18;;;2.05;;
17145;SDS011;8688;54.444;18.444;2023-05-29T05:39:03;11.80;;;2.13;;
17145;SDS011;8688;54.444;18.444;2023-05-29T05:41:32;9.38;;;2.25;;
17145;SDS011;8688;54.444;18.444;2023-05-29T05:44:00;8.75;;;2.30;;
17145;SDS011;8688;54.444;18.444;2023-05-29T05:46:27;9.65;;;2.30;;
17145;SDS011;8688;54.444;18.444;2023-05-29T05:48:55;15.60;;;2.75;;
17145;SDS011;8688;54.444;18.444;2023-05-29T05:51:23;8.18;;;2.10;;
17145;SDS011;8688;54.444;18.444;2023-05-29T05:53:50;6.07;;;2.28;;
17145;SDS011;8688;54.444;18.444;2023-05-29T05:56:18;6.82;;;2.05;;
17145;SDS011;8688;54.444;18.444;2023-05-29T05:58:47;10.10;;;2.08;;
17145;SDS011;8688;54.444;18.444;2023-05-29T06:01:15;8.93;;;1.67;;
17145;SDS011;8688;54.444;18.444;2023-05-29T06:03:43;7.43;;;1.90;;
17145;SDS011;8688;54.444;18.444;2023-05-29T06:06:11;7.72;;;1.80;;
17145;SDS011;8688;54.444;18.444;2023-05-29T06:08:38;8.63;;;1.80;;
17145;SDS011;8688;54.444;18.444;2023-05-29T06:11:08;7.45;;;2.00;;
17145;SDS011;8688;54.444;18.444;2023-05-29T06:13:35;8.68;;;2.17;;
17145;SDS011;8688;54.444;18.444;2023-05-29T06:16:04;9.75;;;1.70;;
17145;SDS011;8688;54.444;18.444;2023-05-29T06:18:33;7.95;;;1.95;;
17145;SDS011;8688;54.444;18.444;2023-05-29T06:21:00;10.25;;;2.45;;
17145;SDS011;8688;54.444;18.444;2023-05-29T06:23:28;11.77;;;2.60;;
17145;SDS011;8688;54.444;18.444;2023-05-29T06:25:55;9.23;;;2.20;;
17145;SDS011;8688;54.444;18.444;2023-05-29T06:28:22;6.43;;;1.85;;
17145;SDS011;8688;54.444;18.444;2023-05-29T06:30:50;5.57;;;1.70;;
17145;SDS011;8688;54.444;18.444;2023-05-29T06:33:19;9.10;;;1.67;;
17145;SDS011;8688;54.444;18.444;2023-05-29T06:35:47;7.28;;;1.90;;
17145;SDS011;8688;54.444;18.444;2023-05-29T06:38:15;6.65;;;1.48;;
17145;SDS011;8688;54.444;18.444;2023-05-29T06:40:42;6.03;;;1.90;;
17145;SDS011;8688;54.444;18.444;2023-05-29T06:43:10;14.85;;;2.17;;
17145;SDS011;8688;54.444;18.444;2023-05-29T06:45:37;7.07;;;1.85;;
17145;SDS011;8688;54.444;18.444;2023-05-29T06:48:05;6.25;;;1.83;;
17145;SDS011;8688;54.444;18.444;2023-05-29T06:50:34;7.53;;;1.88;;
17145;SDS011;8688;54.444;18.444;2023-05-29T06:53:02;4.40;;;1.58;;
17145;SDS011;8688;54.444;18.444;2023-05-29T06:55:30;12.23;;;2.00;;
17145;SDS011;8688;54.444;18.444;2023-05-29T06:57:57;10.48;;;2.25;;
17145;SDS011;8688;54.444;18.444;2023-05-29T07:00:25;7.47;;;2.15;;
17145;SDS011;8688;54.444;18.444;2023-05-29T07:02:52;16.58;;;2.85;;
17145;SDS011;8688;54.444;18.444;2023-05-29T07:05:19;8.57;;;1.80;;
17145;SDS011;8688;54.444;18.444;2023-05-29T07:07:49;8.18;;;1.75;;
17145;SDS011;8688;54.444;18.444;2023-05-29T07:10:16;5.38;;;1.60;;
17145;SDS011;8688;54.444;18.444;2023-05-29T07:12:44;3.13;;;1.23;;
17145;SDS011;8688;54.444;18.444;2023-05-29T07:15:11;4.57;;;1.80;;
17145;SDS011;8688;54.444;18.444;2023-05-29T07:17:39;5.97;;;1.55;;
17145;SDS011;8688;54.444;18.444;2023-05-29T07:20:07;5.90;;;1.60;;
17145;SDS011;8688;54.444;18.444;2023-05-29T07:22:35;6.82;;;1.38;;
17145;SDS011;8688;54.444;18.444;2023-05-29T07:25:04;7.47;;;1.90;;
17145;SDS011;8688;54.444;18.444;2023-05-29T07:27:32;9.18;;;1.77;;
17145;SDS011;8688;54.444;18.444;2023-05-29T07:30:01;15.05;;;2.28;;
17145;SDS011;8688;54.444;18.444;2023-05-29T07:32:28;3.55;;;1.58;;
17145;SDS011;8688;54.444;18.444;2023-05-29T07:34:56;7.32;;;1.50;;
17145;SDS011;8688;54.444;18.444;2023-05-29T07:37:23;7.68;;;1.35;;
17145;SDS011;8688;54.444;18.444;2023-05-29T07:39:51;8.18;;;1.30;;
17145;SDS011;8688;54.444;18.444;2023-05-29T07:42:20;24.45;;;2.55;;
17145;SDS011;8688;54.444;18.444;2023-05-29T07:44:47;14.50;;;2.10;;
17145;SDS011;8688;54.444;18.444;2023-05-29T07:47:15;5.22;;;1.70;;
17145;SDS011;8688;54.444;18.444;2023-05-29T07:49:42;10.95;;;1.83;;
17145;SDS011;8688;54.444;18.444;2023-05-29T07:52:10;6.90;;;1.83;;
17145;SDS011;8688;54.444;18.444;2023-05-29T07:54:37;5.53;;;1.20;;
17145;SDS011;8688;54.444;18.444;2023-05-29T07:57:05;14.40;;;2.15;;
17145;SDS011;8688;54.444;18.444;2023-05-29T07:59:36;7.72;;;1.45;;
17145;SDS011;8688;54.444;18.444;2023-05-29T08:02:05;6.13;;;1.35;;
17145;SDS011;8688;54.444;18.444;2023-05-29T08:04:33;6.55;;;1.50;;
17145;SDS011;8688;54.444;18.444;2023-05-29T08:07:03;4.50;;;1.40;;
17145;SDS011;8688;54.444;18.444;2023-05-29T08:09:31;5.53;;;1.30;;
17145;SDS011;8688;54.444;18.444;2023-05-29T08:11:58;3.67;;;1.85;;
17145;SDS011;8688;54.444;18.444;2023-05-29T08:14:26;9.68;;;1.67;;
17145;SDS011;8688;54.444;18.444;2023-05-29T08:16:55;4.32;;;1.40;;
17145;SDS011;8688;54.444;18.444;2023-05-29T08:19:23;7.10;;;1.42;;
17145;SDS011;8688;54.444;18.444;2023-05-29T08:21:50;6.05;;;1.45;;
17145;SDS011;8688;54.444;18.444;2023-05-29T08:24:18;4.13;;;1.35;;
17145;SDS011;8688;54.444;18.444;2023-05-29T08:26:45;5.00;;;1.40;;
17145;SDS011;8688;54.444;18.444;2023-05-29T08:29:13;13.98;;;1.50;;
17145;SDS011;8688;54.444;18.444;2023-05-29T08:31:40;3.95;;;1.20;;
17145;SDS011;8688;54.444;18.444;2023-05-29T08:34:09;4.60;;;1.27;;
17145;SDS011;8688;54.444;18.444;2023-05-29T08:36:37;4.20;;;1.20;;
17145;SDS011;8688;54.444;18.444;2023-05-29T08:39:06;4.13;;;1.35;;
17145;SDS011;8688;54.444;18.444;2023-05-29T08:41:35;2.88;;;1.10;;
17145;SDS011;8688;54.444;18.444;2023-05-29T08:44:11;4.88;;;1.20;;
17145;SDS011;8688;54.444;18.444;2023-05-29T08:46:40;4.03;;;1.35;;
17145;SDS011;8688;54.444;18.444;2023-05-29T08:49:09;5.40;;;1.05;;
17145;SDS011;8688;54.444;18.444;2023-05-29T08:51:40;14.27;;;2.22;;
17145;SDS011;8688;54.444;18.444;2023-05-29T08:54:09;3.60;;;1.33;;
17145;SDS011;8688;54.444;18.444;2023-05-29T08:56:38;4.78;;;1.25;;
17145;SDS011;8688;54.444;18.444;2023-05-29T08:59:06;4.07;;;1.20;;
17145;SDS011;8688;54.444;18.444;2023-05-29T09:01:34;3.97;;;1.13;;
17145;SDS011;8688;54.444;18.444;2023-05-29T09:04:04;4.43;;;1.25;;
17145;SDS011;8688;54.444;18.444;2023-05-29T09:06:33;4.38;;;1.30;;
17145;SDS011;8688;54.444;18.444;2023-05-29T09:09:00;6.32;;;1.38;;
17145;SDS011;8688;54.444;18.444;2023-05-29T09:11:29;6.15;;;1.20;;
17145;SDS011;8688;54.444;18.444;2023-05-29T09:13:57;4.93;;;1.33;;
17145;SDS011;8688;54.444;18.444;2023-05-29T09:16:24;4.30;;;1.10;;
17145;SDS011;8688;54.444;18.444;2023-05-29T09:18:52;6.63;;;1.77;;
17145;SDS011;8688;54.444;18.444;2023-05-29T09:21:30;4.18;;;1.30;;
17145;SDS011;8688;54.444;18.444;2023-05-29T09:24:03;5.85;;;1.45;;
17145;SDS011;8688;54.444;18.444;2023-05-29T09:26:31;3.85;;;1.38;;
17145;SDS011;8688;54.444;18.444;2023-05-29T09:28:58;2.85;;;1.20;;
17145;SDS011;8688;54.444;18.444;2023-05-29T09:31:26;2.10;;;1.05;;
17145;SDS011;8688;54.444;18.444;2023-05-29T09:33:53;3.60;;;1.48;;
17145;SDS011;8688;54.444;18.444;2023-05-29T09:36:21;5.57;;;1.27;;
17145;SDS011;8688;54.444;18.444;2023-05-29T09:38:50;3.30;;;1.20;;
17145;SDS011;8688;54.444;18.444;2023-05-29T09:41:21;3.88;;;1.20;;
17145;SDS011;8688;54.444;18.444;2023-05-29T09:43:49;2.97;;;1.10;;
17145;SDS011;8688;54.444;18.444;2023-05-29T09:46:18;4.28;;;1.00;;
17145;SDS011;8688;54.444;18.444;2023-05-29T09:48:46;6.22;;;1.20;;
17145;SDS011;8688;54.444;18.444;2023-05-29T09:51:20;4.57;;;1.05;;
17145;SDS011;8688;54.444;18.444;2023-05-29T09:53:50;4.03;;;1.27;;
17145;SDS011;8688;54.444;18.444;2023-05-29T09:56:19;3.85;;;1.27;;
17145;SDS011;8688;54.444;18.444;2023-05-29T09:58:49;3.72;;;1.13;;
17145;SDS011;8688;54.444;18.444;2023-05-29T10:01:20;6.05;;;1.35;;
17145;SDS011;8688;54.444;18.444;2023-05-29T10:03:48;4.82;;;1.15;;
17145;SDS011;8688;54.444;18.444;2023-05-29T10:06:16;2.63;;;0.75;;
17145;SDS011;8688;54.444;18.444;2023-05-29T10:08:47;3.08;;;0.85;;
17145;SDS011;8688;54.444;18.444;2023-05-29T10:11:20;2.13;;;0.90;;
17145;SDS011;8688;54.444;18.444;2023-05-29T10:13:50;3.15;;;0.80;;
17145;SDS011;8688;54.444;18.444;2023-05-29T10:16:19;5.15;;;0.88;;
17145;SDS011;8688;54.444;18.444;2023-05-29T10:18:49;3.90;;;0.88;;
17145;SDS011;8688;54.444;18.444;2023-05-29T10:21:21;5.45;;;1.52;;
17145;SDS011;8688;54.444;18.444;2023-05-29T10:23:51;2.22;;;1.00;;
17145;SDS011;8688;54.444;18.444;2023-05-29T10:26:21;4.40;;;1.00;;
17145;SDS011;8688;54.444;18.444;2023-05-29T10:28:54;5.60;;;0.88;;
17145;SDS011;8688;54.444;18.444;2023-05-29T10:31:26;4.03;;;1.10;;
17145;SDS011;8688;54.444;18.444;2023-05-29T10:34:02;6.22;;;1.10;;
17145;SDS011;8688;54.444;18.444;2023-05-29T10:36:40;6.78;;;1.30;;
17145;SDS011;8688;54.444;18.444;2023-05-29T10:39:13;4.57;;;1.10;;
17145;SDS011;8688;54.444;18.444;2023-05-29T10:41:42;3.92;;;1.10;;
17145;SDS011;8688;54.444;18.444;2023-05-29T10:47:06;4.00;;;0.95;;
17145;SDS011;8688;54.444;18.444;2023-05-29T10:49:36;4.28;;;1.02;;
17145;SDS011;8688;54.444;18.444;2023-05-29T10:52:03;3.85;;;0.90;;
17145;SDS011;8688;54.444;18.444;2023-05-29T10:54:49;2.63;;;1.15;;
17145;SDS011;8688;54.444;18.444;2023-05-29T10:57:21;2.67;;;1.25;;
17145;SDS011;8688;54.444;18.444;2023-05-29T10:59:59;4.65;;;0.95;;
17145;SDS011;8688;54.444;18.444;2023-05-29T11:02:38;3.67;;;1.23;;
17145;SDS011;8688;54.444;18.444;2023-05-29T11:05:22;2.72;;;1.00;;
17145;SDS011;8688;54.444;18.444;2023-05-29T11:07:51;3.53;;;1.00;;
17145;SDS011;8688;54.444;18.444;2023-05-29T11:13:10;5.13;;;1.33;;
17145;SDS011;8688;54.444;18.444;2023-05-29T11:15:56;6.97;;;2.10;;
17145;SDS011;8688;54.444;18.444;2023-05-29T11:18:41;3.30;;;1.10;;
17145;SDS011;8688;54.444;18.444;2023-05-29T11:21:21;5.13;;;1.00;;
17145;SDS011;8688;54.444;18.444;2023-05-29T11:23:54;4.75;;;1.10;;
17145;SDS011;8688;54.444;18.444;2023-05-29T11:26:26;3.38;;;1.30;;
17145;SDS011;8688;54.444;18.444;2023-05-29T11:28:58;6.50;;;1.10;;
17145;SDS011;8688;54.444;18.444;2023-05-29T11:31:26;2.85;;;1.27;;
17145;SDS011;8688;54.444;18.444;2023-05-29T11:33:58;6.55;;;2.00;;
17145;SDS011;8688;54.444;18.444;2023-05-29T11:36:28;5.25;;;1.40;;
17145;SDS011;8688;54.444;18.444;2023-05-29T11:38:55;4.60;;;1.27;;
17145;SDS011;8688;54.444;18.444;2023-05-29T11:41:23;5.10;;;1.10;;
17145;SDS011;8688;54.444;18.444;2023-05-29T11:43:59;4.20;;;1.10;;
17145;SDS011;8688;54.444;18.444;2023-05-29T11:46:28;5.85;;;1.30;;
17145;SDS011;8688;54.444;18.444;2023-05-29T11:48:57;3.58;;;1.17;;
17145;SDS011;8688;54.444;18.444;2023-05-29T11:51:25;8.77;;;1.77;;
17145;SDS011;8688;54.444;18.444;2023-05-29T11:53:53;8.73;;;1.63;;
17145;SDS011;8688;54.444;18.444;2023-05-29T11:56:24;4.60;;;1.48;;
17145;SDS011;8688;54.444;18.444;2023-05-29T11:58:53;4.68;;;1.27;;
17145;SDS011;8688;54.444;18.444;2023-05-29T12:01:24;5.85;;;1.38;;
17145;SDS011;8688;54.444;18.444;2023-05-29T12:03:52;4.93;;;1.23;;
17145;SDS011;8688;54.444;18.444;2023-05-29T12:06:30;6.50;;;1.42;;
17145;SDS011;8688;54.444;18.444;2023-05-29T12:08:59;4.82;;;1.20;;
17145;SDS011;8688;54.444;18.444;2023-05-29T12:11:28;4.97;;;1.35;;
17145;SDS011;8688;54.444;18.444;2023-05-29T12:13:57;6.78;;;1.67;;
17145;SDS011;8688;54.444;18.444;2023-05-29T12:16:27;5.68;;;1.35;;
17145;SDS011;8688;54.444;18.444;2023-05-29T12:18:57;4.40;;;1.10;;
17145;SDS011;8688;54.444;18.444;2023-05-29T12:21:24;5.22;;;1.23;;
17145;SDS011;8688;54.444;18.444;2023-05-29T12:23:54;3.67;;;1.55;;
17145;SDS011;8688;54.444;18.444;2023-05-29T12:26:22;5.72;;;1.65;;
17145;SDS011;8688;54.444;18.444;2023-05-29T12:28:51;5.78;;;2.03;;
17145;SDS011;8688;54.444;18.444;2023-05-29T12:31:29;4.18;;;1.23;;
17145;SDS011;8688;54.444;18.444;2023-05-29T12:34:00;4.57;;;1.23;;
17145;SDS011;8688;54.444;18.444;2023-05-29T12:36:28;4.82;;;1.00;;
17145;SDS011;8688;54.444;18.444;2023-05-29T12:38:55;4.45;;;1.50;;
17145;SDS011;8688;54.444;18.444;2023-05-29T12:41:26;9.20;;;1.50;;
17145;SDS011;8688;54.444;18.444;2023-05-29T12:43:54;4.22;;;1.17;;
17145;SDS011;8688;54.444;18.444;2023-05-29T12:46:23;5.30;;;1.50;;
17145;SDS011;8688;54.444;18.444;2023-05-29T12:48:53;4.50;;;1.00;;
17145;SDS011;8688;54.444;18.444;2023-05-29T12:51:25;4.00;;;1.52;;
17145;SDS011;8688;54.444;18.444;2023-05-29T12:53:53;4.82;;;1.27;;
17145;SDS011;8688;54.444;18.444;2023-05-29T12:56:22;3.80;;;1.33;;
17145;SDS011;8688;54.444;18.444;2023-05-29T12:58:51;4.45;;;1.38;;
17145;SDS011;8688;54.444;18.444;2023-05-29T13:01:19;3.22;;;1.08;;
17145;SDS011;8688;54.444;18.444;2023-05-29T13:03:47;5.82;;;1.30;;
17145;SDS011;8688;54.444;18.444;2023-05-29T13:06:16;5.20;;;1.30;;
17145;SDS011;8688;54.444;18.444;2023-05-29T13:08:44;6.93;;;1.20;;
17145;SDS011;8688;54.444;18.444;2023-05-29T13:11:12;6.30;;;1.70;;
17145;SDS011;8688;54.444;18.444;2023-05-29T13:13:39;5.25;;;1.10;;
17145;SDS011;8688;54.444;18.444;2023-05-29T13:16:06;5.30;;;1.40;;
17145;SDS011;8688;54.444;18.444;2023-05-29T13:18:34;9.85;;;1.38;;
17145;SDS011;8688;54.444;18.444;2023-05-29T13:21:01;2.72;;;1.10;;
17145;SDS011;8688;54.444;18.444;2023-05-29T13:23:31;4.78;;;1.27;;
17145;SDS011;8688;54.444;18.444;2023-05-29T13:25:58;4.68;;;1.08;;
17145;SDS011;8688;54.444;18.444;2023-05-29T13:28:25;4.85;;;1.35;;
17145;SDS011;8688;54.444;18.444;2023-05-29T13:30:53;5.22;;;1.67;;
17145;SDS011;8688;54.444;18.444;2023-05-29T13:33:20;5.32;;;1.50;;
17145;SDS011;8688;54.444;18.444;2023-05-29T13:35:48;3.78;;;1.35;;
17145;SDS011;8688;54.444;18.444;2023-05-29T13:38:15;5.53;;;1.15;;
17145;SDS011;8688;54.444;18.444;2023-05-29T13:40:44;4.60;;;1.25;;
17145;SDS011;8688;54.444;18.444;2023-05-29T13:43:11;4.65;;;1.60;;
17145;SDS011;8688;54.444;18.444;2023-05-29T13:45:39;7.15;;;1.60;;
17145;SDS011;8688;54.444;18.444;2023-05-29T13:48:07;6.93;;;1.13;;
17145;SDS011;8688;54.444;18.444;2023-05-29T13:50:34;9.88;;;1.60;;
17145;SDS011;8688;54.444;18.444;2023-05-29T13:53:01;4.65;;;1.13;;
17145;SDS011;8688;54.444;18.444;2023-05-29T13:55:29;5.72;;;1.20;;
17145;SDS011;8688;54.444;18.444;2023-05-29T13:57:58;3.80;;;1.02;;
17145;SDS011;8688;54.444;18.444;2023-05-29T14:00:26;3.38;;;1.10;;
17145;SDS011;8688;54.444;18.444;2023-05-29T14:02:54;4.97;;;1.25;;
17145;SDS011;8688;54.444;18.444;2023-05-29T14:05:21;2.38;;;1.20;;
17145;SDS011;8688;54.444;18.444;2023-05-29T14:07:49;5.70;;;1.30;;
17145;SDS011;8688;54.444;18.444;2023-05-29T14:10:16;3.40;;;1.30;;
17145;SDS011;8688;54.444;18.444;2023-05-29T14:12:44;3.00;;;1.20;;
17145;SDS011;8688;54.444;18.444;2023-05-29T14:15:13;5.57;;;1.20;;
17145;SDS011;8688;54.444;18.444;2023-05-29T14:17:40;4.95;;;1.42;;
17145;SDS011;8688;54.444;18.444;2023-05-29T14:20:08;2.47;;;1.10;;
17145;SDS011;8688;54.444;18.444;2023-05-29T14:22:36;3.10;;;1.20;;
17145;SDS011;8688;54.444;18.444;2023-05-29T14:25:03;3.55;;;1.20;;
17145;SDS011;8688;54.444;18.444;2023-05-29T14:27:31;8.57;;;1.40;;
17145;SDS011;8688;54.444;18.444;2023-05-29T14:29:58;4.93;;;1.40;;
17145;SDS011;8688;54.444;18.444;2023-05-29T14:32:28;6.93;;;1.50;;
17145;SDS011;8688;54.444;18.444;2023-05-29T14:34:55;10.38;;;1.70;;
17145;SDS011;8688;54.444;18.444;2023-05-29T14:37:23;6.13;;;1.75;;
17145;SDS011;8688;54.444;18.444;2023-05-29T14:39:50;7.18;;;1.63;;
17145;SDS011;8688;54.444;18.444;2023-05-29T14:42:18;7.03;;;1.92;;
17145;SDS011;8688;54.444;18.444;2023-05-29T14:44:46;7.30;;;1.80;;
17145;SDS011;8688;54.444;18.444;2023-05-29T14:47:13;3.47;;;1.70;;
17145;SDS011;8688;54.444;18.444;2023-05-29T14:49:42;4.22;;;1.17;;
17145;SDS011;8688;54.444;18.444;2023-05-29T14:52:10;5.13;;;1.58;;
17145;SDS011;8688;54.444;18.444;2023-05-29T14:54:37;7.22;;;1.30;;
17145;SDS011;8688;54.444;18.444;2023-05-29T14:57:05;7.15;;;1.80;;
17145;SDS011;8688;54.444;18.444;2023-05-29T14:59:32;18.55;;;2.33;;
17145;SDS011;8688;54.444;18.444;2023-05-29T15:02:00;6.78;;;1.50;;